Green Brook, New Jersey
Current Conditions -  °F | °C
As of 8:53 AM on Sunday 21 Dec 2014 (Local Time) from KSMQ Reporting Station
Overcast Overcast  
Wind Chill: 28°   Ceiling: 3000
Heat Index: 33°   Visibility: 10mi
Dew Point: 23°   Wind: 6mph
Humidity: 66%   Direction: 310°NW
Pressure: 30.31"   Gusts: NA
Location:  40.6011°N, 74.4794°W
Report Text: KSMQ 211353Z AUTO 31005KT 10SM FEW021 OVC030 01/M05 A3031 RMK AO2 SLP265 T00061050
Loading
Personal Weather Stations






























Interactive Weather Map New forecast layout! Learn more

10-Day Weather Forecast

Advertisements
Track Severe Weather on mobile